createdAt,value
2019-01-13T00:00:42.711Z,997.55
2019-01-13T00:01:42.696Z,997.51
2019-01-13T00:02:42.682Z,997.55
2019-01-13T00:03:42.669Z,997.52
2019-01-13T00:04:42.654Z,997.55
2019-01-13T00:05:42.638Z,997.59
2019-01-13T00:06:42.625Z,997.54
2019-01-13T00:07:42.610Z,997.57
2019-01-13T00:08:42.597Z,997.57
2019-01-13T00:09:42.581Z,997.54
2019-01-13T00:10:42.567Z,997.55
2019-01-13T00:11:42.553Z,997.56
2019-01-13T00:12:42.539Z,997.57
2019-01-13T00:13:42.524Z,997.61
2019-01-13T00:14:42.509Z,997.56
2019-01-13T00:15:42.496Z,997.56
2019-01-13T00:16:42.481Z,997.56
2019-01-13T00:17:42.466Z,997.58
2019-01-13T00:18:42.453Z,997.56
2019-01-13T00:19:42.438Z,997.56
2019-01-13T00:20:42.424Z,997.55
2019-01-13T00:21:42.411Z,997.55
2019-01-13T00:22:42.395Z,997.50
2019-01-13T00:23:42.381Z,997.53
2019-01-13T00:24:42.367Z,997.49
2019-01-13T00:25:42.352Z,997.50
2019-01-13T00:26:42.341Z,997.50
2019-01-13T00:27:42.324Z,997.45
2019-01-13T00:28:42.312Z,997.43
2019-01-13T00:29:42.295Z,997.47
2019-01-13T00:30:42.281Z,997.47
2019-01-13T00:31:42.267Z,997.50
2019-01-13T00:32:42.253Z,997.45
2019-01-13T00:33:42.240Z,997.44
2019-01-13T00:34:42.225Z,997.48
2019-01-13T00:35:42.214Z,997.40
2019-01-13T00:36:42.197Z,997.39
2019-01-13T00:37:42.189Z,997.36
2019-01-13T00:38:42.170Z,997.41
2019-01-13T00:39:42.156Z,997.40
2019-01-13T00:40:42.143Z,997.36
2019-01-13T00:41:42.127Z,997.41
2019-01-13T00:42:42.213Z,997.41
2019-01-13T00:43:42.099Z,997.43
2019-01-13T00:44:42.085Z,997.41
2019-01-13T00:45:42.071Z,997.37
2019-01-13T00:46:42.058Z,997.35
2019-01-13T00:47:42.044Z,997.41
2019-01-13T00:48:42.066Z,997.39
2019-01-13T00:49:42.015Z,997.36
2019-01-13T00:50:42.002Z,997.38
2019-01-13T00:51:41.988Z,997.34
2019-01-13T00:52:41.975Z,997.35
2019-01-13T00:53:42.980Z,997.29
2019-01-13T00:54:41.949Z,997.31
2019-01-13T00:55:41.933Z,997.29
2019-01-13T00:56:41.919Z,997.28
2019-01-13T00:57:41.906Z,997.28
2019-01-13T00:58:41.894Z,997.23
2019-01-13T00:59:41.879Z,997.21
2019-01-13T01:00:41.864Z,997.11
2019-01-13T01:01:41.850Z,997.07
2019-01-13T01:02:41.835Z,997.14
2019-01-13T01:03:41.872Z,997.07
2019-01-13T01:04:41.808Z,997.12
2019-01-13T01:05:41.794Z,997.09
2019-01-13T01:06:41.780Z,997.11
2019-01-13T01:07:41.766Z,997.01
2019-01-13T01:08:41.754Z,997.10
2019-01-13T01:09:41.739Z,997.09
2019-01-13T01:10:41.723Z,997.04
2019-01-13T01:11:41.710Z,997.05
2019-01-13T01:12:41.696Z,997.00
2019-01-13T01:13:41.682Z,997.07
2019-01-13T01:14:41.671Z,997.12
2019-01-13T01:15:41.655Z,997.05
2019-01-13T01:16:41.641Z,997.11
2019-01-13T01:17:41.626Z,997.08
2019-01-13T01:18:41.863Z,997.07
2019-01-13T01:19:41.599Z,997.05
2019-01-13T01:20:41.588Z,997.04
2019-01-13T01:21:41.571Z,997.08
2019-01-13T01:22:41.557Z,997.07
2019-01-13T01:23:41.543Z,997.07
2019-01-13T01:24:41.530Z,996.99
2019-01-13T01:25:41.515Z,997.00
2019-01-13T01:26:41.502Z,996.93
2019-01-13T01:27:41.492Z,996.87
2019-01-13T01:28:41.475Z,996.87
2019-01-13T01:29:41.460Z,996.85
2019-01-13T01:30:41.447Z,996.92
2019-01-13T01:31:41.436Z,996.89
2019-01-13T01:32:41.420Z,996.83
2019-01-13T01:33:41.406Z,996.81
2019-01-13T01:34:41.392Z,996.83
2019-01-13T01:35:41.378Z,996.88
2019-01-13T01:36:41.366Z,996.92
2019-01-13T01:37:41.400Z,996.92
2019-01-13T01:38:41.336Z,996.94
2019-01-13T01:39:41.323Z,996.95
2019-01-13T01:40:41.309Z,996.95
2019-01-13T01:41:41.295Z,996.98
2019-01-13T01:42:41.282Z,996.97
2019-01-13T01:43:41.267Z,996.94
2019-01-13T01:44:41.254Z,996.88
2019-01-13T01:45:41.239Z,996.91
2019-01-13T01:46:41.226Z,996.91
2019-01-13T01:47:41.213Z,996.90
2019-01-13T01:48:41.202Z,996.94
2019-01-13T01:49:41.186Z,996.97
2019-01-13T01:50:41.171Z,996.91
2019-01-13T01:51:41.156Z,996.91
2019-01-13T01:52:41.143Z,996.90
2019-01-13T01:53:41.128Z,996.90
2019-01-13T01:54:41.114Z,996.87
2019-01-13T01:55:41.101Z,996.81
2019-01-13T01:56:41.087Z,996.81
2019-01-13T01:57:41.072Z,996.79
2019-01-13T01:58:41.058Z,996.81
2019-01-13T01:59:41.044Z,996.73
2019-01-13T02:00:41.032Z,996.73
2019-01-13T02:01:41.018Z,996.75
2019-01-13T02:02:41.002Z,996.76
2019-01-13T02:03:41.055Z,996.70
2019-01-13T02:04:40.975Z,996.65
2019-01-13T02:05:40.960Z,996.65
2019-01-13T02:06:40.947Z,996.62
2019-01-13T02:07:40.952Z,996.62
2019-01-13T02:08:40.920Z,996.58
2019-01-13T02:09:40.904Z,996.57
2019-01-13T02:10:40.891Z,996.57
2019-01-13T02:11:40.877Z,996.48
2019-01-13T02:12:40.863Z,996.46
2019-01-13T02:13:40.849Z,996.56
2019-01-13T02:14:40.835Z,996.52
2019-01-13T02:15:40.821Z,996.55
2019-01-13T02:16:40.807Z,996.47
2019-01-13T02:17:40.794Z,996.47
2019-01-13T02:18:40.779Z,996.52
2019-01-13T02:19:40.765Z,996.49
2019-01-13T02:20:40.751Z,996.55
2019-01-13T02:21:40.737Z,996.49
2019-01-13T02:22:40.723Z,996.45
2019-01-13T02:23:40.709Z,996.30
2019-01-13T02:24:40.699Z,996.27
2019-01-13T02:25:40.681Z,996.28
2019-01-13T02:26:40.669Z,996.20
2019-01-13T02:27:40.654Z,996.25
2019-01-13T02:28:41.040Z,996.20
2019-01-13T02:29:40.628Z,996.20
2019-01-13T02:30:48.788Z,996.17
2019-01-13T02:31:40.598Z,996.18
2019-01-13T02:32:40.586Z,996.15
2019-01-13T02:33:40.569Z,996.12
2019-01-13T02:34:40.557Z,996.15
2019-01-13T02:35:40.544Z,996.24
2019-01-13T02:36:40.529Z,996.16
2019-01-13T02:37:40.514Z,996.30
2019-01-13T02:38:40.600Z,996.25
2019-01-13T02:39:40.486Z,996.19
2019-01-13T02:40:40.473Z,996.16
2019-01-13T02:41:40.465Z,996.17
2019-01-13T02:42:40.444Z,996.08
2019-01-13T02:43:40.433Z,996.12
2019-01-13T02:44:40.417Z,996.09
2019-01-13T02:45:40.402Z,996.17
2019-01-13T02:46:40.388Z,996.14
2019-01-13T02:47:40.375Z,996.19
2019-01-13T02:48:40.361Z,996.25
2019-01-13T02:49:40.349Z,996.28
2019-01-13T02:50:40.333Z,996.21
2019-01-13T02:51:40.319Z,996.23
2019-01-13T02:52:40.305Z,996.27
2019-01-13T02:53:40.290Z,996.26
2019-01-13T02:54:40.277Z,996.30
2019-01-13T02:55:40.264Z,996.26
2019-01-13T02:56:40.251Z,996.27
2019-01-13T02:57:40.234Z,996.25
2019-01-13T02:58:40.223Z,996.19
2019-01-13T02:59:40.207Z,996.17
2019-01-13T03:00:40.193Z,996.18
2019-01-13T03:01:40.179Z,996.18
2019-01-13T03:02:40.166Z,996.24
2019-01-13T03:03:40.151Z,996.24
2019-01-13T03:04:40.493Z,996.26
2019-01-13T03:05:40.125Z,996.23
2019-01-13T03:06:40.110Z,996.25
2019-01-13T03:07:40.095Z,996.21
2019-01-13T03:08:40.083Z,996.25
2019-01-13T03:09:40.068Z,996.22
2019-01-13T03:10:40.054Z,996.17
2019-01-13T03:11:40.039Z,996.16
2019-01-13T03:12:40.026Z,996.22
2019-01-13T03:13:40.016Z,996.20
2019-01-13T03:14:40.008Z,996.21
2019-01-13T03:15:39.987Z,996.20
2019-01-13T03:16:39.969Z,996.23
2019-01-13T03:17:39.955Z,996.25
2019-01-13T03:18:39.941Z,996.19
2019-01-13T03:19:39.966Z,996.20
2019-01-13T03:20:39.915Z,996.10
2019-01-13T03:21:39.900Z,996.17
2019-01-13T03:22:39.885Z,996.20
2019-01-13T03:23:39.871Z,996.21
2019-01-13T03:24:39.859Z,996.18
2019-01-13T03:25:39.844Z,996.23
2019-01-13T03:26:39.834Z,996.22
2019-01-13T03:27:39.815Z,996.29
2019-01-13T03:38:39.659Z,996.23
2019-01-13T03:39:39.647Z,996.30
2019-01-13T03:40:39.631Z,996.18
2019-01-13T03:41:39.627Z,996.15
2019-01-13T03:42:39.603Z,996.09
2019-01-13T03:43:39.589Z,996.08
2019-01-13T03:44:39.574Z,996.03
2019-01-13T03:45:39.559Z,996.11
2019-01-13T03:46:39.545Z,996.05
2019-01-13T03:47:39.531Z,996.00
2019-01-13T03:48:39.518Z,995.96
2019-01-13T03:49:39.502Z,995.91
2019-01-13T03:50:39.488Z,995.88
2019-01-13T03:51:39.474Z,995.86
2019-01-13T03:52:39.461Z,995.82
2019-01-13T03:53:39.445Z,995.84
2019-01-13T03:54:39.430Z,995.83
2019-01-13T03:55:39.425Z,995.88
2019-01-13T03:56:39.402Z,995.74
2019-01-13T03:57:39.414Z,995.71
2019-01-13T03:58:39.374Z,995.69
2019-01-13T03:59:39.359Z,995.75
2019-01-13T04:00:39.345Z,995.72
2019-01-13T04:01:39.333Z,995.69
2019-01-13T04:02:39.315Z,995.67
2019-01-13T04:03:39.303Z,995.72
2019-01-13T04:04:39.288Z,995.71
2019-01-13T04:05:39.273Z,995.67
2019-01-13T04:06:39.259Z,995.65
2019-01-13T04:07:39.246Z,995.57
2019-01-13T04:08:39.231Z,995.52
2019-01-13T04:09:39.216Z,995.51
2019-01-13T04:10:39.201Z,995.46
2019-01-13T04:11:39.188Z,995.54
2019-01-13T04:12:39.174Z,995.49
2019-01-13T04:13:39.159Z,995.46
2019-01-13T04:14:39.154Z,995.46
2019-01-13T04:15:39.133Z,995.41
2019-01-13T04:16:39.118Z,995.40
2019-01-13T04:17:39.103Z,995.41
2019-01-13T04:18:39.091Z,995.39
2019-01-13T04:19:39.079Z,995.41
2019-01-13T04:20:39.062Z,995.38
2019-01-13T04:21:39.048Z,995.34
2019-01-13T04:22:39.035Z,995.40
2019-01-13T04:23:39.021Z,995.34
2019-01-13T04:24:39.008Z,995.33
2019-01-13T04:25:38.992Z,995.33
2019-01-13T04:26:38.978Z,995.26
2019-01-13T04:27:38.965Z,995.20
2019-01-13T04:28:38.953Z,995.15
2019-01-13T04:29:38.938Z,995.16
2019-01-13T04:30:38.924Z,995.08
2019-01-13T04:31:38.909Z,995.11
2019-01-13T04:32:38.898Z,995.02
2019-01-13T04:33:38.883Z,995.02
2019-01-13T04:34:38.868Z,994.96
2019-01-13T04:35:38.855Z,994.98
2019-01-13T04:36:38.842Z,994.94
2019-01-13T04:37:38.826Z,994.99
2019-01-13T04:38:38.813Z,994.96
2019-01-13T04:39:38.799Z,994.91
2019-01-13T04:40:38.786Z,994.97
2019-01-13T04:41:38.771Z,994.98
2019-01-13T04:42:38.758Z,994.93
2019-01-13T04:43:38.745Z,994.99
2019-01-13T04:44:38.732Z,994.98
2019-01-13T04:45:38.717Z,994.96
2019-01-13T04:46:38.747Z,994.99
2019-01-13T04:47:38.695Z,994.98
2019-01-13T04:48:38.676Z,994.97
2019-01-13T04:49:38.663Z,995.01
2019-01-13T04:50:38.648Z,994.95
2019-01-13T04:51:38.636Z,994.92
2019-01-13T04:52:38.622Z,994.93
2019-01-13T04:53:38.606Z,994.81
2019-01-13T04:54:38.595Z,994.75
2019-01-13T04:55:38.585Z,994.76
2019-01-13T04:56:38.566Z,994.73
2019-01-13T04:57:38.552Z,994.79
2019-01-13T04:58:38.541Z,994.83
2019-01-13T04:59:38.524Z,994.79
2019-01-13T05:00:38.513Z,994.79
2019-01-13T05:01:38.501Z,994.82
2019-01-13T05:02:38.488Z,994.84
2019-01-13T05:03:38.471Z,994.73
2019-01-13T05:04:38.477Z,994.75
2019-01-13T05:05:38.449Z,994.68
2019-01-13T05:06:38.429Z,994.65
2019-01-13T05:07:38.417Z,994.64
2019-01-13T05:08:38.402Z,994.60
2019-01-13T05:09:38.388Z,994.53
2019-01-13T05:10:38.375Z,994.56
2019-01-13T05:11:38.362Z,994.51
2019-01-13T05:12:38.347Z,994.50
2019-01-13T05:13:38.335Z,994.48
2019-01-13T05:14:38.324Z,994.46
2019-01-13T05:15:38.326Z,994.41
2019-01-13T05:16:38.293Z,994.29
2019-01-13T05:17:38.278Z,994.37
2019-01-13T05:18:38.266Z,994.33
2019-01-13T05:19:38.253Z,994.30
2019-01-13T05:20:40.143Z,994.31
2019-01-13T05:21:38.223Z,994.31
2019-01-13T05:22:38.217Z,994.34
2019-01-13T05:23:38.197Z,994.24
2019-01-13T05:24:38.186Z,994.25
2019-01-13T05:25:38.174Z,994.23
2019-01-13T05:26:38.156Z,994.16
2019-01-13T05:27:38.142Z,994.18
2019-01-13T05:28:38.129Z,994.11
2019-01-13T05:29:38.115Z,994.01
2019-01-13T05:30:38.102Z,993.91
2019-01-13T05:31:41.884Z,993.88
2019-01-13T05:32:38.075Z,993.84
2019-01-13T05:33:38.060Z,993.75
2019-01-13T05:34:38.048Z,993.77
2019-01-13T05:35:38.034Z,993.70
2019-01-13T05:36:38.020Z,993.73
2019-01-13T05:37:38.008Z,993.75
2019-01-13T05:38:37.996Z,993.76
2019-01-13T05:39:37.979Z,993.80
2019-01-13T05:40:37.966Z,993.81
2019-01-13T05:41:37.952Z,993.87
2019-01-13T05:42:37.938Z,993.80
2019-01-13T05:43:37.925Z,993.81
2019-01-13T05:44:37.911Z,993.78
2019-01-13T05:45:37.897Z,993.72
2019-01-13T05:46:37.884Z,993.71
2019-01-13T05:47:37.871Z,993.70
2019-01-13T05:48:37.857Z,993.64
2019-01-13T05:49:37.842Z,993.76
2019-01-13T05:50:37.829Z,993.71
2019-01-13T05:51:37.816Z,993.62
2019-01-13T05:52:37.802Z,993.58
2019-01-13T05:53:37.788Z,993.53
2019-01-13T05:54:37.776Z,993.48
2019-01-13T05:55:37.762Z,993.53
2019-01-13T05:56:37.751Z,993.54
2019-01-13T05:57:37.734Z,993.49
2019-01-13T05:58:37.720Z,993.53
2019-01-13T05:59:37.707Z,993.53
2019-01-13T06:00:37.693Z,993.52
2019-01-13T06:01:37.682Z,993.49
2019-01-13T06:02:37.666Z,993.50
2019-01-13T06:03:37.652Z,993.45
2019-01-13T06:04:37.640Z,993.40
2019-01-13T06:05:37.627Z,993.33
2019-01-13T06:06:37.610Z,993.35
2019-01-13T06:07:37.598Z,993.22
2019-01-13T06:08:37.584Z,993.28
2019-01-13T06:09:37.569Z,993.38
2019-01-13T06:10:37.558Z,993.39
2019-01-13T06:11:37.543Z,993.28
2019-01-13T06:12:37.529Z,993.32
2019-01-13T06:13:37.515Z,993.30
2019-01-13T06:14:37.502Z,993.34
2019-01-13T06:15:37.490Z,993.28
2019-01-13T06:16:37.477Z,993.29
2019-01-13T06:17:37.463Z,993.31
2019-01-13T06:18:37.449Z,993.33
2019-01-13T06:19:37.433Z,993.25
2019-01-13T06:20:37.421Z,993.27
2019-01-13T06:21:37.405Z,993.28
2019-01-13T06:22:37.393Z,993.23
2019-01-13T06:23:37.378Z,993.34
2019-01-13T06:24:37.364Z,993.29
2019-01-13T06:25:37.350Z,993.30
2019-01-13T06:26:37.336Z,993.21
2019-01-13T06:27:37.322Z,993.22
2019-01-13T06:28:37.308Z,993.20
2019-01-13T06:29:37.294Z,993.18
2019-01-13T06:30:37.281Z,993.24
2019-01-13T06:31:37.267Z,993.21
2019-01-13T06:32:37.253Z,993.24
2019-01-13T06:33:37.239Z,993.24
2019-01-13T06:34:37.233Z,993.25
2019-01-13T06:35:37.211Z,993.34
2019-01-13T06:36:37.198Z,993.31
2019-01-13T06:37:37.185Z,993.32
2019-01-13T06:38:37.169Z,993.37
2019-01-13T06:39:37.156Z,993.41
2019-01-13T06:40:37.142Z,993.34
2019-01-13T06:41:37.127Z,993.42
2019-01-13T06:42:37.114Z,993.40
2019-01-13T06:43:37.100Z,993.46
2019-01-13T06:44:37.089Z,993.38
2019-01-13T06:45:37.072Z,993.41
2019-01-13T06:46:37.059Z,993.41
2019-01-13T06:47:37.045Z,993.37
2019-01-13T06:48:37.031Z,993.37
2019-01-13T06:49:37.016Z,993.37
2019-01-13T06:50:37.003Z,993.40
2019-01-13T06:51:36.989Z,993.42
2019-01-13T06:52:36.975Z,993.44
2019-01-13T06:53:36.960Z,993.42
2019-01-13T06:54:36.948Z,993.42
2019-01-13T06:55:36.933Z,993.46
2019-01-13T06:56:36.919Z,993.47
2019-01-13T06:57:36.904Z,993.42
2019-01-13T06:58:36.894Z,993.40
2019-01-13T06:59:36.876Z,993.44
2019-01-13T07:00:36.863Z,993.42
2019-01-13T07:01:36.850Z,993.36
2019-01-13T07:02:36.835Z,993.38
2019-01-13T07:03:36.821Z,993.36
2019-01-13T07:04:36.808Z,993.42
2019-01-13T07:05:36.792Z,993.34
2019-01-13T07:06:36.779Z,993.34
2019-01-13T07:07:37.534Z,993.29
2019-01-13T07:08:36.751Z,993.29
2019-01-13T07:09:36.737Z,993.29
2019-01-13T07:10:36.725Z,993.31
2019-01-13T07:11:36.709Z,993.30
2019-01-13T07:12:36.695Z,993.29
2019-01-13T07:13:36.680Z,993.35
2019-01-13T07:14:36.667Z,993.29
2019-01-13T07:15:36.653Z,993.32
2019-01-13T07:16:36.643Z,993.30
2019-01-13T07:17:36.625Z,993.32
2019-01-13T07:18:36.612Z,993.22
2019-01-13T07:19:36.598Z,993.26
2019-01-13T07:20:36.584Z,993.24
2019-01-13T07:21:36.569Z,993.29
2019-01-13T07:22:36.558Z,993.32
2019-01-13T07:23:36.542Z,993.31
2019-01-13T07:24:36.528Z,993.36
2019-01-13T07:25:36.514Z,993.23
2019-01-13T07:26:36.500Z,993.31
2019-01-13T07:27:36.485Z,993.25
2019-01-13T07:28:36.473Z,993.29
2019-01-13T07:29:36.461Z,993.30
2019-01-13T07:30:36.444Z,993.36
2019-01-13T07:31:36.432Z,993.35
2019-01-13T07:32:36.517Z,993.35
2019-01-13T07:33:36.405Z,993.33
2019-01-13T07:34:36.388Z,993.35
2019-01-13T07:35:36.375Z,993.34
2019-01-13T07:36:36.364Z,993.37
2019-01-13T07:37:36.348Z,993.26
2019-01-13T07:38:36.333Z,993.26
2019-01-13T07:39:36.319Z,993.33
2019-01-13T07:40:36.306Z,993.30
2019-01-13T07:41:36.291Z,993.31
2019-01-13T07:42:36.277Z,993.25
2019-01-13T07:43:36.264Z,993.30
2019-01-13T07:44:36.250Z,993.33
2019-01-13T07:45:36.239Z,993.33
2019-01-13T07:46:36.222Z,993.28
2019-01-13T07:47:36.208Z,993.24
2019-01-13T07:48:36.195Z,993.24
2019-01-13T07:49:36.181Z,993.32
2019-01-13T07:50:36.167Z,993.34
2019-01-13T07:51:36.153Z,993.30
2019-01-13T07:52:36.140Z,993.30
2019-01-13T07:53:36.125Z,993.30
2019-01-13T07:54:36.111Z,993.34
2019-01-13T07:55:36.098Z,993.37
2019-01-13T07:56:36.084Z,993.22
2019-01-13T07:57:36.070Z,993.20
2019-01-13T07:58:36.056Z,993.19
2019-01-13T07:59:36.043Z,993.17
2019-01-13T08:00:36.029Z,993.14
2019-01-13T08:01:36.014Z,993.10
2019-01-13T08:02:36.000Z,993.16
2019-01-13T08:03:35.987Z,993.22
2019-01-13T08:04:35.976Z,993.24
2019-01-13T08:05:35.960Z,993.28
2019-01-13T08:06:35.950Z,993.22
2019-01-13T08:07:35.932Z,993.16
2019-01-13T08:08:35.918Z,993.18
2019-01-13T08:09:35.904Z,993.28
2019-01-13T08:10:35.890Z,993.30
2019-01-13T08:11:35.881Z,993.32
2019-01-13T08:12:35.863Z,993.31
2019-01-13T08:13:35.849Z,993.37
2019-01-13T08:14:35.835Z,993.31
2019-01-13T08:15:35.822Z,993.36
2019-01-13T08:16:35.808Z,993.36
2019-01-13T08:17:35.794Z,993.22
2019-01-13T08:18:35.781Z,993.26
2019-01-13T08:19:35.767Z,993.26
2019-01-13T08:20:35.753Z,993.35
2019-01-13T08:21:35.739Z,993.32
2019-01-13T08:22:35.726Z,993.30
2019-01-13T08:23:35.712Z,993.27
2019-01-13T08:24:35.699Z,993.29
2019-01-13T08:25:35.684Z,993.29
2019-01-13T08:26:35.673Z,993.24
2019-01-13T08:27:35.658Z,993.29
2019-01-13T08:28:35.644Z,993.27
2019-01-13T08:29:35.630Z,993.19
2019-01-13T08:30:35.617Z,993.27
2019-01-13T08:31:35.604Z,993.26
2019-01-13T08:32:35.590Z,993.22
2019-01-13T08:33:35.576Z,993.22
2019-01-13T08:34:35.562Z,993.20
2019-01-13T08:35:35.550Z,993.17
2019-01-13T08:36:35.536Z,993.14
2019-01-13T08:37:35.520Z,993.13
2019-01-13T08:38:35.507Z,993.08
2019-01-13T08:39:35.494Z,992.98
2019-01-13T08:40:35.480Z,993.01
2019-01-13T08:41:35.466Z,992.99
2019-01-13T08:42:35.452Z,992.97
2019-01-13T08:43:35.439Z,992.95
2019-01-13T08:44:35.427Z,992.95
2019-01-13T08:45:35.412Z,992.94
2019-01-13T08:46:35.398Z,992.92
2019-01-13T08:47:35.435Z,992.98
2019-01-13T08:48:35.372Z,992.95
2019-01-13T08:49:35.357Z,992.96
2019-01-13T08:50:35.350Z,992.95
2019-01-13T08:51:35.330Z,993.01
2019-01-13T08:52:35.317Z,992.96
2019-01-13T08:53:35.302Z,992.98
2019-01-13T08:54:35.288Z,993.01
2019-01-13T08:55:35.275Z,992.97
2019-01-13T08:56:35.261Z,993.05
2019-01-13T08:57:35.297Z,993.01
2019-01-13T08:58:35.238Z,993.11
2019-01-13T08:59:35.220Z,993.04
2019-01-13T09:00:35.207Z,993.06
2019-01-13T09:01:35.195Z,993.02
2019-01-13T09:02:35.178Z,993.08
2019-01-13T09:03:35.165Z,992.99
2019-01-13T09:04:35.152Z,992.97
2019-01-13T09:05:35.137Z,992.99
2019-01-13T09:06:35.124Z,993.06
2019-01-13T09:07:35.110Z,993.01
2019-01-13T09:08:35.096Z,993.02
2019-01-13T09:09:35.086Z,993.00
2019-01-13T09:10:35.069Z,993.00
2019-01-13T09:11:35.054Z,992.94
2019-01-13T09:12:35.042Z,992.92
2019-01-13T09:13:35.027Z,992.93
2019-01-13T09:14:35.014Z,992.84
2019-01-13T09:15:35.000Z,992.96
2019-01-13T09:16:34.986Z,992.87
2019-01-13T09:17:34.972Z,992.83
2019-01-13T09:18:34.958Z,992.75
2019-01-13T09:19:34.944Z,992.72
2019-01-13T09:20:34.931Z,992.80
2019-01-13T09:21:34.917Z,992.79
2019-01-13T09:22:34.904Z,992.60
2019-01-13T09:23:34.890Z,992.62
2019-01-13T09:24:34.876Z,992.68
2019-01-13T09:25:34.871Z,992.66
2019-01-13T09:26:34.848Z,992.68
2019-01-13T09:27:34.838Z,992.69
2019-01-13T09:28:34.821Z,992.66
2019-01-13T09:29:34.810Z,992.69
2019-01-13T09:30:34.850Z,992.70
2019-01-13T09:31:34.780Z,992.74
2019-01-13T09:32:39.426Z,992.65
2019-01-13T09:33:34.759Z,992.64
2019-01-13T09:34:34.739Z,992.66
2019-01-13T09:35:34.726Z,992.62
2019-01-13T09:36:34.713Z,992.63
2019-01-13T09:37:34.699Z,992.62
2019-01-13T09:38:34.687Z,992.60
2019-01-13T09:39:34.672Z,992.60
2019-01-13T09:40:34.659Z,992.47
2019-01-13T09:41:34.645Z,992.51
2019-01-13T09:42:34.632Z,992.44
2019-01-13T09:43:34.620Z,992.36
2019-01-13T09:44:34.605Z,992.34
2019-01-13T09:45:34.591Z,992.29
2019-01-13T09:46:34.578Z,992.31
2019-01-13T09:47:34.565Z,992.30
2019-01-13T09:48:34.553Z,992.32
2019-01-13T09:49:34.538Z,992.27
2019-01-13T09:50:34.525Z,992.37
2019-01-13T09:51:34.511Z,992.33
2019-01-13T09:52:34.499Z,992.34
2019-01-13T09:53:34.485Z,992.35
2019-01-13T09:54:34.471Z,992.38
2019-01-13T09:55:34.459Z,992.43
2019-01-13T09:56:34.445Z,992.46
2019-01-13T09:57:34.431Z,992.45
2019-01-13T09:58:34.420Z,992.45
2019-01-13T09:59:34.406Z,992.42
2019-01-13T10:00:34.393Z,992.45
2019-01-13T10:01:34.379Z,992.45
2019-01-13T10:02:34.365Z,992.42
2019-01-13T10:03:34.353Z,992.43
2019-01-13T10:04:34.340Z,992.38
2019-01-13T10:05:34.326Z,992.27
2019-01-13T10:06:34.313Z,992.33
2019-01-13T10:07:34.300Z,992.30
2019-01-13T10:08:34.287Z,992.23
2019-01-13T10:09:34.273Z,992.24
2019-01-13T10:10:34.260Z,992.30
2019-01-13T10:11:34.247Z,992.34
2019-01-13T10:12:34.234Z,992.32
2019-01-13T10:13:34.220Z,992.35
2019-01-13T10:14:34.207Z,992.36
2019-01-13T10:15:34.194Z,992.35
2019-01-13T10:16:34.183Z,992.27
2019-01-13T10:17:34.171Z,992.28
2019-01-13T10:18:34.153Z,992.25
2019-01-13T10:19:34.142Z,992.27
2019-01-13T10:20:34.128Z,992.27
2019-01-13T10:21:34.116Z,992.20
2019-01-13T10:22:34.101Z,992.07
2019-01-13T10:23:34.088Z,992.20
2019-01-13T10:24:34.076Z,992.23
2019-01-13T10:25:34.062Z,992.10
2019-01-13T10:26:34.048Z,992.12
2019-01-13T10:27:34.035Z,992.10
2019-01-13T10:28:34.025Z,992.14
2019-01-13T10:29:34.008Z,992.13
2019-01-13T10:30:33.995Z,992.02
2019-01-13T10:31:33.984Z,992.12
2019-01-13T10:32:33.970Z,992.07
2019-01-13T10:33:33.956Z,991.98
2019-01-13T10:34:33.942Z,991.97
2019-01-13T10:35:33.929Z,991.90
2019-01-13T10:36:33.916Z,991.91
2019-01-13T10:37:33.903Z,991.96
2019-01-13T10:38:33.893Z,992.08
2019-01-13T10:39:33.879Z,991.98
2019-01-13T10:40:33.866Z,991.92
2019-01-13T10:41:33.852Z,991.94
2019-01-13T10:42:33.838Z,991.74
2019-01-13T10:43:33.827Z,991.80
2019-01-13T10:44:33.812Z,991.82
2019-01-13T10:45:33.802Z,991.80
2019-01-13T10:46:33.785Z,991.85
2019-01-13T10:47:33.773Z,991.82
2019-01-13T10:48:33.761Z,991.76
2019-01-13T10:49:33.746Z,991.67
2019-01-13T10:50:33.735Z,991.65
2019-01-13T10:51:33.720Z,991.54
2019-01-13T10:52:33.708Z,991.52
2019-01-13T10:53:33.694Z,991.58
2019-01-13T10:54:33.681Z,991.61
2019-01-13T10:55:33.668Z,991.62
2019-01-13T10:56:33.656Z,991.54
2019-01-13T10:57:33.642Z,991.67
2019-01-13T10:58:33.631Z,991.57
2019-01-13T10:59:33.618Z,991.51
2019-01-13T11:00:33.654Z,991.55
2019-01-13T11:01:33.591Z,991.55
2019-01-13T11:02:33.578Z,991.54
2019-01-13T11:03:33.567Z,991.60
2019-01-13T11:04:33.552Z,991.47
2019-01-13T11:05:33.538Z,991.48
2019-01-13T11:06:33.526Z,991.44
2019-01-13T11:07:33.513Z,991.40
2019-01-13T11:08:33.500Z,991.36
2019-01-13T11:09:33.486Z,991.31
2019-01-13T11:10:33.474Z,991.31
2019-01-13T11:11:33.461Z,991.24
2019-01-13T11:12:33.448Z,991.28
2019-01-13T11:13:33.437Z,991.28
2019-01-13T11:14:33.421Z,991.31
2019-01-13T11:15:33.408Z,991.25
2019-01-13T11:16:33.395Z,991.25
2019-01-13T11:17:33.384Z,991.24
2019-01-13T11:18:33.369Z,991.25
2019-01-13T11:19:33.384Z,991.30
2019-01-13T11:20:33.342Z,991.21
2019-01-13T11:21:33.328Z,991.16
2019-01-13T11:22:33.315Z,991.30
2019-01-13T11:23:33.302Z,991.19
2019-01-13T11:24:33.289Z,991.12
2019-01-13T11:25:33.275Z,991.10
2019-01-13T11:26:33.262Z,991.11
2019-01-13T11:27:33.251Z,991.07
2019-01-13T11:28:33.235Z,991.05
2019-01-13T11:29:33.224Z,991.01
2019-01-13T11:30:33.208Z,991.00
2019-01-13T11:31:33.197Z,991.05
2019-01-13T11:32:33.182Z,990.98
2019-01-13T11:33:33.168Z,991.03
2019-01-13T11:34:33.156Z,991.00
2019-01-13T11:35:33.142Z,990.99
2019-01-13T11:36:33.129Z,990.87
2019-01-13T11:37:33.115Z,990.88
2019-01-13T11:38:33.102Z,990.89
2019-01-13T11:39:33.089Z,990.85
2019-01-13T11:40:33.075Z,990.76
2019-01-13T11:41:33.061Z,990.69
2019-01-13T11:42:33.049Z,990.73
2019-01-13T11:43:33.035Z,990.82
2019-01-13T11:44:33.023Z,990.78
2019-01-13T11:45:33.008Z,990.78
2019-01-13T11:46:32.995Z,990.77
2019-01-13T11:47:32.981Z,990.75
2019-01-13T11:48:32.968Z,990.70
2019-01-13T11:49:32.957Z,990.79
2019-01-13T11:50:32.940Z,990.80
2019-01-13T11:51:32.928Z,990.82
2019-01-13T11:52:32.915Z,990.88
2019-01-13T11:53:32.901Z,990.89
2019-01-13T11:54:32.888Z,990.81
2019-01-13T11:55:32.874Z,990.87
2019-01-13T11:56:32.872Z,990.85
2019-01-13T11:57:32.847Z,990.85
2019-01-13T11:58:32.833Z,990.75
2019-01-13T11:59:32.820Z,990.78
2019-01-13T12:00:32.807Z,990.77
2019-01-13T12:01:32.792Z,990.75
2019-01-13T12:02:33.030Z,990.75
2019-01-13T12:03:32.767Z,990.69
2019-01-13T12:04:32.753Z,990.70
2019-01-13T12:05:32.739Z,990.71
2019-01-13T12:06:32.725Z,990.61
2019-01-13T12:07:32.713Z,990.61
2019-01-13T12:08:32.699Z,990.60
2019-01-13T12:09:32.685Z,990.56
2019-01-13T12:10:32.671Z,990.52
2019-01-13T12:11:32.658Z,990.53
2019-01-13T12:12:32.645Z,990.44
2019-01-13T12:13:32.630Z,990.52
2019-01-13T12:14:32.617Z,990.44
2019-01-13T12:15:32.606Z,990.38
2019-01-13T12:16:32.590Z,990.33
2019-01-13T12:17:32.575Z,990.28
2019-01-13T12:18:32.562Z,990.29
2019-01-13T12:19:32.549Z,990.27
2019-01-13T12:20:32.537Z,990.33
2019-01-13T12:21:32.521Z,990.37
2019-01-13T12:22:32.511Z,990.33
2019-01-13T12:23:32.495Z,990.25
2019-01-13T12:24:32.482Z,990.32
2019-01-13T12:25:32.466Z,990.31
2019-01-13T12:26:32.454Z,990.32
2019-01-13T12:27:32.440Z,990.27
2019-01-13T12:28:32.426Z,990.30
2019-01-13T12:29:32.413Z,990.22
2019-01-13T12:30:32.399Z,990.19
2019-01-13T12:31:32.417Z,990.18
2019-01-13T12:32:32.372Z,990.12
2019-01-13T12:33:32.358Z,990.16
2019-01-13T12:34:32.344Z,990.09
2019-01-13T12:35:32.332Z,990.13
2019-01-13T12:36:32.318Z,990.06
2019-01-13T12:37:32.304Z,990.08
2019-01-13T12:38:32.290Z,990.07